Time,TemperatureF,DewpointF,PressureIn,WindDirection,WindDirectionDegrees,WindSpeedMPH,WindSpeedGustMPH,Humidity,HourlyPrecipIn,Conditions,Clouds,dailyrainin,SoftwareType,DateUTC
2013-02-04 00:00:00,13.1,7.5,27.15,NW,310,10.0,19.0,78,0.00,,,-99.99,Weather View 32 v60,2013-02-04 05:00:00,
2013-02-04 00:20:00,13.2,7.9,27.15,WNW,300,3.0,20.0,79,0.00,,,-99.99,Weather View 32 v60,2013-02-04 05:20:00,
2013-02-04 00:40:00,13.2,7.9,27.16,NW,312,11.0,20.0,79,0.00,,,-99.99,Weather View 32 v60,2013-02-04 05:40:00,
2013-02-04 01:00:00,13.2,8.2,27.16,NNW,329,11.0,20.0,80,0.00,,,-99.99,Weather View 32 v60,2013-02-04 06:00:00,
2013-02-04 01:20:00,13.1,8.1,27.16,WNW,295,12.0,18.0,80,0.00,,,-99.99,Weather View 32 v60,2013-02-04 06:20:00,
2013-02-04 01:40:00,13.2,9.0,27.16,NW,304,5.0,18.0,83,0.00,,,-99.99,Weather View 32 v60,2013-02-04 06:40:00,
2013-02-04 02:00:00,13.2,8.7,27.17,NW,307,14.0,20.0,82,0.00,,,-99.99,Weather View 32 v60,2013-02-04 07:00:00,
2013-02-04 02:20:00,13.2,7.9,27.16,WNW,290,4.0,20.0,79,0.00,,,-99.99,Weather View 32 v60,2013-02-04 07:20:00,
2013-02-04 02:40:00,13.2,7.9,27.16,WNW,299,3.0,20.0,79,0.00,,,-99.99,Weather View 32 v60,2013-02-04 07:40:00,
2013-02-04 03:00:00,13.4,8.7,27.16,WNW,291,6.0,20.0,81,0.00,,,-99.99,Weather View 32 v60,2013-02-04 08:00:00,
2013-02-04 03:20:00,13.5,8.8,27.16,WNW,287,11.0,20.0,81,0.00,,,-99.99,Weather View 32 v60,2013-02-04 08:20:00,
2013-02-04 03:40:00,13.7,9.0,27.16,WNW,295,9.0,21.0,81,0.00,,,-99.99,Weather View 32 v60,2013-02-04 08:40:00,
2013-02-04 04:00:00,13.7,8.7,27.17,NW,323,8.0,23.0,80,0.00,,,-99.99,Weather View 32 v60,2013-02-04 09:00:00,
2013-02-04 04:20:00,13.7,8.4,27.17,WNW,301,14.0,23.0,79,0.00,,,-99.99,Weather View 32 v60,2013-02-04 09:20:00,
2013-02-04 04:40:00,13.5,7.6,27.18,NW,313,6.0,23.0,77,0.00,,,-99.99,Weather View 32 v60,2013-02-04 09:40:00,
2013-02-04 05:00:00,13.3,7.2,27.18,WNW,300,13.0,22.0,76,0.00,,,-99.99,Weather View 32 v60,2013-02-04 10:00:00,
2013-02-04 05:20:00,13.0,6.9,27.18,WNW,303,10.0,24.0,76,0.00,,,-99.99,Weather View 32 v60,2013-02-04 10:20:00,
2013-02-04 05:40:00,12.9,7.1,27.18,WNW,302,11.0,24.0,77,0.00,,,-99.99,Weather View 32 v60,2013-02-04 10:40:00,
2013-02-04 06:00:00,12.8,7.5,27.19,WNW,293,10.0,24.0,79,0.00,,,-99.99,Weather View 32 v60,2013-02-04 11:00:00,
2013-02-04 06:20:00,12.8,7.2,27.19,WNW,299,9.0,23.0,78,0.00,,,-99.99,Weather View 32 v60,2013-02-04 11:20:00,
2013-02-04 06:40:00,12.8,7.5,27.19,WNW,292,11.0,20.0,79,0.00,,,-99.99,Weather View 32 v60,2013-02-04 11:40:00,
2013-02-04 07:00:00,13.3,7.7,27.17,WNW,300,10.0,20.0,78,0.00,,,-99.99,Weather View 32 v60,2013-02-04 12:00:00,
2013-02-04 07:20:00,14.2,8.0,27.19,WNW,285,16.0,24.0,76,0.00,,,-99.99,Weather View 32 v60,2013-02-04 12:20:00,
2013-02-04 07:40:00,15.1,8.0,27.18,NW,306,12.0,25.0,73,0.00,,,-99.99,Weather View 32 v60,2013-02-04 12:40:00,
2013-02-04 08:00:00,16.5,8.4,27.19,WNW,287,10.0,25.0,70,0.00,,,-99.99,Weather View 32 v60,2013-02-04 13:00:00,
2013-02-04 08:20:00,16.9,8.2,27.19,WNW,286,5.0,25.0,68,0.00,,,-99.99,Weather View 32 v60,2013-02-04 13:20:00,
2013-02-04 08:40:00,17.3,7.6,27.18,WNW,293,7.0,21.0,65,0.00,,,-99.99,Weather View 32 v60,2013-02-04 13:40:00,
2013-02-04 09:00:00,19.1,8.6,27.18,WNW,283,6.0,20.0,63,0.00,,,-99.99,Weather View 32 v60,2013-02-04 14:00:00,
2013-02-04 09:20:00,19.6,8.0,27.16,WNW,292,11.0,22.0,60,0.00,,,-99.99,Weather View 32 v60,2013-02-04 14:20:00,
2013-02-04 09:40:00,21.9,9.0,27.17,West,262,9.0,22.0,57,0.00,,,-99.99,Weather View 32 v60,2013-02-04 14:40:00,
2013-02-04 10:00:00,22.6,9.3,27.15,WNW,297,10.0,22.0,56,0.00,,,-99.99,Weather View 32 v60,2013-02-04 15:00:00,
2013-02-04 10:20:00,23.7,10.3,27.15,WNW,291,9.0,17.0,56,0.00,,,-99.99,Weather View 32 v60,2013-02-04 15:20:00,
2013-02-04 10:40:00,25.2,12.1,27.15,West,280,9.0,17.0,57,0.00,,,-99.99,Weather View 32 v60,2013-02-04 15:40:00,
2013-02-04 11:00:00,28.5,13.1,27.14,West,280,11.0,16.0,52,0.00,,,-99.99,Weather View 32 v60,2013-02-04 16:00:00,
2013-02-04 11:20:00,28.0,13.1,27.13,West,268,7.0,15.0,53,0.00,,,-99.99,Weather View 32 v60,2013-02-04 16:20:00,
2013-02-04 11:40:00,27.7,14.0,27.12,West,280,9.0,14.0,56,0.00,,,-99.99,Weather View 32 v60,2013-02-04 16:40:00,
2013-02-04 12:00:00,27.3,14.1,27.12,WNW,297,6.0,13.0,57,0.00,,,-99.99,Weather View 32 v60,2013-02-04 17:00:00,
2013-02-04 12:20:00,24.9,13.4,27.12,WSW,258,7.0,13.0,61,0.00,,,-99.99,Weather View 32 v60,2013-02-04 17:20:00,
2013-02-04 12:40:00,25.8,14.9,27.11,West,279,3.0,13.0,63,0.00,,,-99.99,Weather View 32 v60,2013-02-04 17:40:00,
2013-02-04 13:00:00,26.0,15.5,27.10,WNW,290,6.0,13.0,64,0.00,,,-99.99,Weather View 32 v60,2013-02-04 18:00:00,
2013-02-04 13:20:00,26.6,17.1,27.09,West,267,1.0,12.0,67,0.00,,,-99.99,Weather View 32 v60,2013-02-04 18:20:00,
2013-02-04 13:40:00,27.4,18.6,27.10,NW,304,3.0,10.0,69,0.00,,,-99.99,Weather View 32 v60,2013-02-04 18:40:00,
2013-02-04 14:00:00,27.7,19.5,27.09,NW,312,1.0,8.0,71,0.00,,,-99.99,Weather View 32 v60,2013-02-04 19:00:00,
2013-02-04 14:20:00,28.0,20.1,27.09,WNW,284,3.0,8.0,72,0.00,,,-99.99,Weather View 32 v60,2013-02-04 19:20:00,
2013-02-04 14:40:00,26.6,19.7,27.08,WNW,297,3.0,8.0,75,0.00,,,-99.99,Weather View 32 v60,2013-02-04 19:40:00,
2013-02-04 15:00:00,25.5,19.6,27.08,West,268,1.0,8.0,78,0.00,,,-99.99,Weather View 32 v60,2013-02-04 20:00:00,
2013-02-04 15:20:00,25.9,20.3,27.07,West,273,3.0,8.0,79,0.01,,,-99.99,Weather View 32 v60,2013-02-04 20:20:00,
2013-02-04 15:40:00,25.2,20.8,27.07,West,269,0.0,8.0,83,0.01,,,-99.99,Weather View 32 v60,2013-02-04 20:40:00,
2013-02-04 16:00:00,25.2,21.0,27.06,SW,229,6.0,13.0,84,0.01,,,-99.99,Weather View 32 v60,2013-02-04 21:00:00,
2013-02-04 16:20:00,25.1,21.8,27.05,WSW,238,11.0,13.0,87,0.00,,,-99.99,Weather View 32 v60,2013-02-04 21:20:00,
2013-02-04 16:40:00,25.3,22.0,27.05,WSW,248,9.0,13.0,87,0.01,,,-99.99,Weather View 32 v60,2013-02-04 21:40:00,
2013-02-04 17:00:00,25.8,23.0,27.04,WSW,238,6.0,13.0,89,0.01,,,-99.99,Weather View 32 v60,2013-02-04 22:00:00,
2013-02-04 17:20:00,26.6,24.1,27.05,SW,228,7.0,14.0,90,0.01,,,-99.99,Weather View 32 v60,2013-02-04 22:20:00,
2013-02-04 17:40:00,27.1,24.6,27.06,WNW,291,3.0,15.0,90,0.00,,,-99.99,Weather View 32 v60,2013-02-04 22:40:00,
2013-02-04 18:00:00,27.5,25.2,27.06,WSW,240,6.0,15.0,91,0.01,,,-99.99,Weather View 32 v60,2013-02-04 23:00:00,
2013-02-04 18:20:00,27.9,25.9,27.06,SW,230,10.0,15.0,92,0.02,,,-99.99,Weather View 32 v60,2013-02-04 23:20:00,
2013-02-04 18:40:00,28.9,26.9,27.06,West,276,11.0,24.0,92,0.02,,,-99.99,Weather View 32 v60,2013-02-04 23:40:00,
2013-02-04 19:00:00,29.0,26.7,27.06,WNW,282,6.0,24.0,91,0.02,,,-99.99,Weather View 32 v60,2013-02-05 00:00:00,
2013-02-04 19:20:00,29.0,27.0,27.06,WSW,253,10.0,24.0,92,0.01,,,-99.99,Weather View 32 v60,2013-02-05 00:20:00,
2013-02-04 19:40:00,29.0,27.0,27.06,NW,305,10.0,22.0,92,0.02,,,-99.99,Weather View 32 v60,2013-02-05 00:40:00,
2013-02-04 20:00:00,28.7,26.4,27.07,WNW,298,10.0,20.0,91,0.01,,,-99.99,Weather View 32 v60,2013-02-05 01:00:00,
2013-02-04 20:20:00,28.6,26.3,27.07,WNW,289,6.0,20.0,91,0.02,,,-99.99,Weather View 32 v60,2013-02-05 01:20:00,
2013-02-04 20:40:00,28.6,26.3,27.07,West,264,4.0,20.0,91,0.01,,,-99.99,Weather View 32 v60,2013-02-05 01:40:00,
2013-02-04 21:00:00,28.6,26.3,27.06,WNW,286,12.0,21.0,91,0.02,,,-99.99,Weather View 32 v60,2013-02-05 02:00:00,
2013-02-04 21:20:00,28.9,26.1,27.05,WSW,248,5.0,21.0,89,0.01,,,-99.99,Weather View 32 v60,2013-02-05 02:20:00,
2013-02-04 21:40:00,29.1,26.3,27.05,WSW,251,13.0,21.0,89,0.01,,,-99.99,Weather View 32 v60,2013-02-05 02:40:00,
2013-02-04 22:00:00,29.3,27.3,27.05,WSW,258,5.0,17.0,92,0.00,,,-99.99,Weather View 32 v60,2013-02-05 03:00:00,
2013-02-04 22:20:00,29.3,27.8,27.05,WNW,283,8.0,22.0,94,0.00,,,-99.99,Weather View 32 v60,2013-02-05 03:20:00,
2013-02-04 22:40:00,29.3,28.0,27.04,WSW,242,6.0,22.0,95,0.00,,,-99.99,Weather View 32 v60,2013-02-05 03:40:00,
2013-02-04 23:00:00,29.5,28.2,27.04,West,265,3.0,22.0,95,0.00,,,-99.99,Weather View 32 v60,2013-02-05 04:00:00,
2013-02-04 23:20:00,29.8,28.5,27.03,WNW,295,7.0,20.0,95,0.00,,,-99.99,Weather View 32 v60,2013-02-05 04:20:00,
2013-02-04 23:40:00,29.9,28.6,27.04,WNW,294,5.0,12.0,95,0.00,,,-99.99,Weather View 32 v60,2013-02-05 04:40:00,